createdAt,value
2023-04-12T00:01:35.694Z,3.28
2023-04-12T00:04:39.803Z,2.85
2023-04-12T00:07:47.188Z,2.47
2023-04-12T00:10:50.907Z,2.35
2023-04-12T00:13:54.732Z,2.47
2023-04-12T00:16:58.016Z,3.67
2023-04-12T00:20:02.280Z,3.17
2023-04-12T00:23:05.440Z,2.63
2023-04-12T00:26:08.640Z,2.90
2023-04-12T00:29:11.713Z,2.40
2023-04-12T00:32:14.796Z,2.53
2023-04-12T00:35:17.685Z,3.60
2023-04-12T00:38:20.880Z,2.65
2023-04-12T00:41:24.686Z,2.58
2023-04-12T00:44:27.776Z,4.22
2023-04-12T00:47:31.394Z,3.22
2023-04-12T00:50:35.695Z,4.00
2023-04-12T00:53:40.224Z,2.95
2023-04-12T00:56:45.261Z,3.95
2023-04-12T00:59:49.075Z,2.50
2023-04-12T01:02:53.337Z,2.85
2023-04-12T01:06:16.861Z,6.32
2023-04-12T01:09:44.514Z,4.30
2023-04-12T01:13:12.183Z,4.82
2023-04-12T01:16:18.360Z,4.10
2023-04-12T01:19:36.901Z,3.90
2023-04-12T01:23:15.337Z,4.38
2023-04-12T01:26:45.045Z,4.43
2023-04-12T01:29:51.740Z,4.82
2023-04-12T01:33:00.203Z,5.55
2023-04-12T01:36:10.142Z,4.55
2023-04-12T01:39:13.571Z,4.45
2023-04-12T01:42:21.172Z,3.88
2023-04-12T01:45:24.274Z,5.60
2023-04-12T01:48:27.346Z,4.68
2023-04-12T01:51:59.112Z,6.18
2023-04-12T01:55:05.386Z,5.20
2023-04-12T01:58:09.693Z,3.33
2023-04-12T02:01:18.386Z,6.68
2023-04-12T02:04:22.546Z,4.22
2023-04-12T02:07:25.931Z,4.85
2023-04-12T02:10:33.135Z,3.15
2023-04-12T02:13:36.196Z,4.00
2023-04-12T02:16:39.818Z,4.90
2023-04-12T02:19:42.799Z,6.43
2023-04-12T02:22:46.503Z,4.22
2023-04-12T02:25:49.402Z,4.78
2023-04-12T02:28:52.990Z,4.28
2023-04-12T02:31:55.873Z,3.88
2023-04-12T02:34:59.371Z,4.43
2023-04-12T02:38:04.324Z,2.45
2023-04-12T02:41:07.730Z,4.07
2023-04-12T02:44:10.899Z,2.97
2023-04-12T02:47:14.909Z,4.63
2023-04-12T02:50:18.419Z,4.72
2023-04-12T02:53:22.217Z,7.72
2023-04-12T02:56:25.509Z,18.50
2023-04-12T02:59:29.425Z,14.55
2023-04-12T03:02:32.840Z,10.10
2023-04-12T03:05:36.621Z,5.50
2023-04-12T03:08:40.139Z,6.72
2023-04-12T03:11:43.113Z,6.35
2023-04-12T03:14:46.213Z,3.80
2023-04-12T03:17:49.578Z,4.90
2023-04-12T03:20:53.105Z,3.63
2023-04-12T03:23:56.408Z,4.85
2023-04-12T03:26:59.676Z,4.40
2023-04-12T03:30:04.401Z,4.75
2023-04-12T03:33:07.532Z,8.05
2023-04-12T03:36:11.426Z,6.30
2023-04-12T03:39:14.605Z,17.10
2023-04-12T03:42:31.693Z,4.95
2023-04-12T03:45:36.874Z,4.28
2023-04-12T03:48:40.172Z,4.32
2023-04-12T03:51:43.257Z,4.38
2023-04-12T03:54:46.447Z,3.47
2023-04-12T03:57:49.430Z,2.78
2023-04-12T04:00:53.546Z,3.38
2023-04-12T04:03:57.334Z,3.67
2023-04-12T04:07:01.681Z,3.40
2023-04-12T04:10:06.106Z,2.88
2023-04-12T04:13:09.085Z,2.85
2023-04-12T04:16:12.940Z,3.17
2023-04-12T04:19:16.179Z,2.92
2023-04-12T04:22:21.880Z,4.55
2023-04-12T04:25:30.349Z,3.65
2023-04-12T04:28:35.200Z,3.42
2023-04-12T04:31:38.715Z,3.85
2023-04-12T04:34:41.773Z,4.60
2023-04-12T04:37:45.077Z,2.40
2023-04-12T04:40:53.590Z,3.40
2023-04-12T04:43:57.007Z,14.80
2023-04-12T04:47:01.001Z,4.95
2023-04-12T04:50:04.402Z,6.38
2023-04-12T04:53:07.591Z,7.55
2023-04-12T04:56:11.809Z,2.75
2023-04-12T04:59:14.913Z,5.03
2023-04-12T05:02:18.208Z,5.97
2023-04-12T05:05:23.636Z,8.55
2023-04-12T05:08:27.948Z,16.58
2023-04-12T05:11:31.174Z,71.57
2023-04-12T05:14:45.893Z,80.75
2023-04-12T05:17:52.712Z,19.52
2023-04-12T05:20:56.182Z,22.05
2023-04-12T05:23:59.174Z,14.65
2023-04-12T05:27:02.358Z,15.05
2023-04-12T05:30:06.488Z,12.35
2023-04-12T05:33:09.772Z,11.38
2023-04-12T05:36:12.964Z,10.93
2023-04-12T05:39:17.893Z,8.63
2023-04-12T05:42:22.632Z,4.78
2023-04-12T05:45:26.231Z,6.20
2023-04-12T05:48:29.424Z,6.30
2023-04-12T05:51:40.372Z,6.13
2023-04-12T05:54:44.514Z,8.40
2023-04-12T05:57:47.708Z,8.77
2023-04-12T06:00:51.727Z,13.48
2023-04-12T06:03:55.721Z,14.40
2023-04-12T06:06:59.749Z,14.73
2023-04-12T06:10:03.262Z,23.33
2023-04-12T06:13:06.542Z,21.17
2023-04-12T06:16:09.598Z,19.02
2023-04-12T06:19:12.939Z,7.32
2023-04-12T06:22:16.532Z,3.17
2023-04-12T06:25:19.830Z,5.13
2023-04-12T06:28:23.127Z,3.10
2023-04-12T06:31:26.282Z,1.98
2023-04-12T06:34:29.713Z,3.75
2023-04-12T06:37:32.648Z,2.85
2023-04-12T06:40:36.830Z,2.13
2023-04-12T06:43:40.107Z,1.30
2023-04-12T06:46:43.158Z,1.58
2023-04-12T06:49:46.292Z,4.57
2023-04-12T06:52:49.691Z,2.05
2023-04-12T06:55:54.307Z,5.25
2023-04-12T06:58:57.715Z,3.78
2023-04-12T07:02:01.138Z,10.75
2023-04-12T07:05:04.957Z,7.72
2023-04-12T07:08:09.870Z,2.13
2023-04-12T07:11:20.898Z,3.60
2023-04-12T07:14:24.851Z,6.00
2023-04-12T07:17:28.299Z,1.70
2023-04-12T07:20:31.942Z,3.08
2023-04-12T07:23:35.267Z,4.32
2023-04-12T07:26:38.348Z,2.08
2023-04-12T07:29:41.426Z,4.03
2023-04-12T07:32:45.378Z,4.00
2023-04-12T07:35:48.436Z,6.18
2023-04-12T07:38:56.189Z,2.10
2023-04-12T07:41:59.727Z,5.93
2023-04-12T07:45:02.727Z,2.80
2023-04-12T07:48:06.999Z,2.50
2023-04-12T07:51:10.340Z,2.45
2023-04-12T07:54:14.049Z,4.20
2023-04-12T07:57:17.241Z,2.75
2023-04-12T08:00:21.044Z,4.25
2023-04-12T08:03:24.000Z,4.80
2023-04-12T08:06:30.573Z,3.05
2023-04-12T08:09:34.728Z,2.70
2023-04-12T08:12:38.025Z,4.05
2023-04-12T08:15:41.442Z,3.35
2023-04-12T08:18:44.515Z,4.20
2023-04-12T08:21:47.723Z,3.67
2023-04-12T08:24:50.898Z,2.80
2023-04-12T08:27:54.011Z,2.83
2023-04-12T08:30:57.555Z,1.85
2023-04-12T08:34:01.212Z,4.18
2023-04-12T08:37:04.290Z,3.75
2023-04-12T08:40:08.509Z,4.03
2023-04-12T08:43:13.549Z,4.35
2023-04-12T08:46:17.463Z,2.05
2023-04-12T08:49:23.412Z,3.50
2023-04-12T08:52:26.397Z,2.40
2023-04-12T08:55:29.811Z,2.63
2023-04-12T08:58:33.511Z,3.10
2023-04-12T09:01:37.574Z,4.80
2023-04-12T09:04:51.113Z,2.25
2023-04-12T09:07:54.265Z,3.47
2023-04-12T09:10:58.479Z,5.13
2023-04-12T09:14:02.149Z,3.60
2023-04-12T09:17:06.306Z,4.95
2023-04-12T09:20:25.471Z,3.72
2023-04-12T09:23:29.070Z,3.67
2023-04-12T09:26:32.275Z,3.85
2023-04-12T09:29:35.353Z,3.78
2023-04-12T09:32:38.826Z,3.72
2023-04-12T09:35:43.319Z,4.28
2023-04-12T09:39:01.243Z,2.13
2023-04-12T09:42:25.493Z,3.35
2023-04-12T09:45:37.718Z,2.33
2023-04-12T09:48:41.315Z,2.45
2023-04-12T09:51:53.726Z,2.28
2023-04-12T09:54:57.756Z,5.45
2023-04-12T09:58:05.236Z,1.90
2023-04-12T10:01:10.409Z,3.38
2023-04-12T10:04:13.794Z,2.63
2023-04-12T10:07:17.995Z,2.08
2023-04-12T10:10:22.121Z,3.22
2023-04-12T10:13:26.435Z,2.78
2023-04-12T10:16:31.451Z,1.75
2023-04-12T10:19:34.783Z,2.78
2023-04-12T10:22:59.899Z,1.98
2023-04-12T10:26:05.252Z,2.25
2023-04-12T10:29:26.681Z,3.28
2023-04-12T10:32:30.106Z,2.13
2023-04-12T10:35:53.055Z,4.70
2023-04-12T10:39:10.338Z,1.33
2023-04-12T10:42:29.219Z,2.40
2023-04-12T10:45:32.391Z,3.10
2023-04-12T10:48:52.410Z,2.95
2023-04-12T10:52:01.840Z,4.28
2023-04-12T10:55:27.958Z,1.83
2023-04-12T10:58:58.807Z,4.60
2023-04-12T11:02:09.768Z,2.80
2023-04-12T11:05:14.913Z,2.70
2023-04-12T11:08:19.760Z,3.53
2023-04-12T11:11:22.984Z,1.48
2023-04-12T11:14:30.855Z,2.40
2023-04-12T11:17:37.021Z,1.90
2023-04-12T11:20:41.639Z,2.40
2023-04-12T11:23:46.073Z,3.63
2023-04-12T11:26:49.962Z,3.22
2023-04-12T11:29:58.078Z,3.50
2023-04-12T11:33:01.356Z,1.35
2023-04-12T11:36:13.595Z,2.75
2023-04-12T11:39:16.978Z,1.92
2023-04-12T11:42:23.137Z,4.55
2023-04-12T11:45:27.047Z,3.00
2023-04-12T11:48:31.675Z,2.17
2023-04-12T11:51:36.210Z,3.95
2023-04-12T11:54:43.911Z,5.22
2023-04-12T11:57:56.257Z,2.72
2023-04-12T12:01:00.535Z,6.95
2023-04-12T12:04:04.977Z,2.55
2023-04-12T12:07:09.494Z,3.92
2023-04-12T12:10:18.526Z,2.85
2023-04-12T12:13:27.340Z,2.80
2023-04-12T12:16:31.511Z,2.85
2023-04-12T12:19:39.668Z,2.30
2023-04-12T12:22:47.676Z,2.67
2023-04-12T12:25:51.593Z,3.50
2023-04-12T12:28:57.243Z,2.78
2023-04-12T12:32:06.882Z,2.05
2023-04-12T12:35:13.053Z,3.70
2023-04-12T12:38:16.142Z,3.08
2023-04-12T12:41:24.678Z,2.63
2023-04-12T12:44:27.873Z,3.72
2023-04-12T12:47:34.496Z,5.03
2023-04-12T12:50:37.627Z,3.42
2023-04-12T12:53:41.753Z,3.28
2023-04-12T12:56:45.343Z,3.00
2023-04-12T12:59:48.849Z,2.63
2023-04-12T13:02:52.932Z,7.25
2023-04-12T13:05:56.875Z,3.83
2023-04-12T13:09:00.369Z,3.25
2023-04-12T13:12:03.778Z,7.85
2023-04-12T13:15:20.993Z,4.15
2023-04-12T13:18:26.132Z,8.00
2023-04-12T13:21:29.439Z,3.78
2023-04-12T13:24:32.731Z,3.70
2023-04-12T13:27:36.036Z,3.72
2023-04-12T13:30:39.116Z,6.20
2023-04-12T13:33:42.321Z,4.65
2023-04-12T13:36:45.608Z,4.60
2023-04-12T13:39:50.861Z,7.10
2023-04-12T13:42:54.350Z,5.55
2023-04-12T13:45:58.018Z,4.70
2023-04-12T13:49:01.359Z,5.22
2023-04-12T13:52:04.648Z,5.38
2023-04-12T13:55:08.659Z,27.85
2023-04-12T13:58:11.659Z,5.05
2023-04-12T14:01:14.978Z,3.03
2023-04-12T14:04:17.948Z,3.15
2023-04-12T14:07:21.985Z,5.18
2023-04-12T14:10:26.186Z,6.38
2023-04-12T14:13:29.574Z,4.35
2023-04-12T14:16:32.666Z,5.90
2023-04-12T14:19:35.755Z,11.50
2023-04-12T14:22:39.365Z,6.22
2023-04-12T14:25:42.964Z,6.82
2023-04-12T14:28:46.160Z,6.28
2023-04-12T14:31:49.360Z,9.75
2023-04-12T14:34:52.459Z,10.55
2023-04-12T14:37:55.743Z,6.38
2023-04-12T14:40:58.902Z,7.35
2023-04-12T14:44:02.654Z,4.78
2023-04-12T14:47:05.635Z,3.42
2023-04-12T14:50:09.339Z,7.72
2023-04-12T14:53:14.272Z,3.92
2023-04-12T14:56:29.134Z,3.80
2023-04-12T14:59:33.798Z,5.35
2023-04-12T15:02:37.215Z,8.88
2023-04-12T15:05:40.578Z,5.85
2023-04-12T15:08:43.369Z,3.50
2023-04-12T15:11:49.823Z,8.18
2023-04-12T15:14:54.354Z,8.02
2023-04-12T15:17:57.592Z,4.32
2023-04-12T15:21:04.255Z,5.03
2023-04-12T15:24:08.746Z,4.97
2023-04-12T15:27:11.957Z,5.15
2023-04-12T15:30:15.959Z,3.63
2023-04-12T15:33:21.627Z,4.68
2023-04-12T15:36:33.812Z,3.97
2023-04-12T15:39:37.823Z,5.05
2023-04-12T15:42:44.530Z,4.35
2023-04-12T15:45:48.384Z,4.97
2023-04-12T15:48:51.607Z,4.22
2023-04-12T15:51:57.261Z,4.30
2023-04-12T15:55:00.559Z,5.43
2023-04-12T15:58:03.652Z,7.30
2023-04-12T16:01:07.660Z,6.40
2023-04-12T16:04:10.731Z,21.50
2023-04-12T16:07:14.976Z,15.30
2023-04-12T16:10:23.082Z,15.23
2023-04-12T16:13:26.406Z,16.98
2023-04-12T16:16:30.330Z,7.45
2023-04-12T16:19:33.684Z,4.10
2023-04-12T16:22:39.851Z,6.43
2023-04-12T16:25:43.145Z,10.52
2023-04-12T16:28:46.854Z,11.20
2023-04-12T16:31:52.441Z,7.82
2023-04-12T16:34:56.415Z,16.92
2023-04-12T16:37:59.304Z,8.75
2023-04-12T16:41:03.008Z,15.77
2023-04-12T16:44:05.890Z,13.50
2023-04-12T16:47:09.643Z,9.90
2023-04-12T16:50:14.133Z,17.42
2023-04-12T16:53:18.346Z,6.63
2023-04-12T16:56:23.173Z,7.10
2023-04-12T16:59:27.070Z,8.10
2023-04-12T17:02:32.819Z,6.00
2023-04-12T17:05:37.973Z,7.20
2023-04-12T17:08:41.890Z,2.67
2023-04-12T17:11:45.701Z,7.18
2023-04-12T17:14:49.298Z,4.20
2023-04-12T17:17:55.068Z,5.97
2023-04-12T17:20:59.677Z,8.45
2023-04-12T17:24:04.613Z,4.43
2023-04-12T17:27:08.316Z,6.45
2023-04-12T17:30:13.863Z,7.15
2023-04-12T17:33:19.012Z,3.33
2023-04-12T17:36:22.811Z,5.32
2023-04-12T17:39:26.671Z,4.78
2023-04-12T17:42:31.145Z,4.22
2023-04-12T17:45:35.816Z,3.58
2023-04-12T17:48:42.244Z,3.45
2023-04-12T17:51:46.182Z,4.25
2023-04-12T17:54:50.472Z,3.47
2023-04-12T17:57:54.704Z,3.60
2023-04-12T18:00:58.803Z,3.08
2023-04-12T18:04:03.688Z,3.25
2023-04-12T18:07:10.315Z,5.22
2023-04-12T18:10:17.385Z,2.90
2023-04-12T18:13:22.742Z,7.47
2023-04-12T18:16:26.916Z,4.22
2023-04-12T18:19:30.257Z,4.72
2023-04-12T18:22:33.758Z,4.70
2023-04-12T18:25:37.888Z,6.20
2023-04-12T18:28:41.575Z,8.30
2023-04-12T18:34:51.172Z,5.07
2023-04-12T18:37:55.572Z,4.25
2023-04-12T18:41:02.660Z,6.88
2023-04-12T18:44:09.744Z,5.47
2023-04-12T18:47:13.446Z,5.90
2023-04-12T18:50:21.139Z,7.72
2023-04-12T18:53:24.840Z,6.43
2023-04-12T18:56:28.964Z,4.13
2023-04-12T18:59:32.924Z,6.25
2023-04-12T19:02:37.782Z,7.15
2023-04-12T19:05:42.029Z,8.43
2023-04-12T19:08:45.317Z,6.63
2023-04-12T19:11:50.248Z,6.00
2023-04-12T19:14:54.525Z,5.78
2023-04-12T19:18:01.136Z,8.70
2023-04-12T19:21:06.626Z,6.03
2023-04-12T19:24:10.903Z,5.85
2023-04-12T19:27:18.502Z,6.85
2023-04-12T19:30:23.132Z,8.23
2023-04-12T19:33:27.452Z,4.65
2023-04-12T19:36:31.258Z,5.85
2023-04-12T19:39:35.475Z,9.43
2023-04-12T19:42:39.896Z,4.85
2023-04-12T19:45:45.192Z,7.47
2023-04-12T19:48:49.772Z,4.85
2023-04-12T19:51:53.883Z,6.57
2023-04-12T19:54:59.015Z,5.53
2023-04-12T19:58:04.862Z,5.07
2023-04-12T20:01:10.669Z,6.53
2023-04-12T20:04:25.016Z,7.22
2023-04-12T20:07:29.094Z,6.78
2023-04-12T20:10:33.128Z,6.40
2023-04-12T20:13:37.531Z,6.47
2023-04-12T20:16:44.647Z,7.20
2023-04-12T20:19:48.430Z,7.25
2023-04-12T20:22:52.746Z,5.15
2023-04-12T20:25:56.154Z,5.00
2023-04-12T20:29:01.692Z,5.20
2023-04-12T20:32:05.816Z,7.05
2023-04-12T20:35:10.124Z,6.15
2023-04-12T20:38:14.046Z,5.85
2023-04-12T20:41:17.702Z,6.65
2023-04-12T20:44:21.859Z,9.57
2023-04-12T20:47:26.794Z,7.78
2023-04-12T20:50:30.716Z,6.93
2023-04-12T20:53:35.432Z,8.95
2023-04-12T20:56:38.520Z,8.98
2023-04-12T20:59:43.143Z,8.68
2023-04-12T21:02:49.558Z,9.23
2023-04-12T21:05:53.113Z,8.73
2023-04-12T21:08:56.987Z,10.43
2023-04-12T21:12:03.090Z,8.48
2023-04-12T21:15:06.896Z,9.18
2023-04-12T21:18:10.308Z,8.57
2023-04-12T21:21:13.478Z,8.82
2023-04-12T21:24:17.402Z,7.97
2023-04-12T21:27:20.799Z,11.15
2023-04-12T21:30:24.098Z,11.23
2023-04-12T21:33:27.384Z,12.18
2023-04-12T21:36:30.898Z,10.05
2023-04-12T21:39:33.877Z,12.43
2023-04-12T21:42:37.997Z,31.08
2023-04-12T21:45:41.436Z,18.55
2023-04-12T21:48:45.092Z,15.40
2023-04-12T21:51:49.475Z,9.23
2023-04-12T21:54:53.735Z,9.50
2023-04-12T21:57:56.830Z,8.07
2023-04-12T22:01:00.068Z,10.43
2023-04-12T22:04:04.757Z,10.10
2023-04-12T22:07:12.774Z,12.18
2023-04-12T22:10:16.771Z,14.45
2023-04-12T22:13:24.068Z,13.02
2023-04-12T22:16:28.355Z,10.77
2023-04-12T22:19:31.266Z,8.65
2023-04-12T22:22:37.629Z,7.03
2023-04-12T22:25:40.838Z,8.57
2023-04-12T22:28:44.630Z,10.82
2023-04-12T22:31:48.029Z,7.63
2023-04-12T22:34:58.041Z,10.65
2023-04-12T22:38:12.841Z,14.35
2023-04-12T22:41:19.520Z,16.02
2023-04-12T22:44:23.123Z,10.55
2023-04-12T22:47:29.733Z,14.57
2023-04-12T22:50:33.107Z,10.20
2023-04-12T22:53:35.891Z,12.77
2023-04-12T22:56:42.323Z,14.93
2023-04-12T22:59:45.646Z,12.20
2023-04-12T23:02:49.100Z,10.30
2023-04-12T23:05:52.651Z,8.80
2023-04-12T23:08:59.019Z,9.02
2023-04-12T23:12:02.217Z,7.80
2023-04-12T23:15:06.023Z,9.75
2023-04-12T23:18:09.423Z,8.82
2023-04-12T23:21:12.807Z,8.57
2023-04-12T23:24:16.921Z,8.82
2023-04-12T23:27:20.731Z,12.63
2023-04-12T23:30:26.685Z,9.05
2023-04-12T23:33:29.984Z,10.38
2023-04-12T23:36:34.094Z,33.13
2023-04-12T23:39:37.189Z,28.85
2023-04-12T23:42:40.386Z,13.90
2023-04-12T23:45:43.484Z,15.30
2023-04-12T23:48:47.078Z,17.40
2023-04-12T23:51:49.862Z,17.83
2023-04-12T23:54:53.055Z,16.75
2023-04-12T23:57:56.144Z,12.35
